Time;durP1;ratioP1;P1;durP2;ratioP2;P2;SDS_P1;SDS_P2;PMS_P1;PMS_P2;Temp;Humidity;BMP_temperature;BMP_pressure;BME280_temperature;BME280_humidity;BME280_pressure;Samples;Min_cycle;Max_cycle;Signal;HPM_P1;HPM_P2
2023/08/20 00:06:03;;;;;;;4.35;1.85;;;;;;;;;;20927115;28;20375;-61
2023/08/20 00:16:05;;;;;;;5.32;1.67;;;;;;;;;;20925068;28;20106;-62
2023/08/20 00:26:06;;;;;;;8.35;2.90;;;;;;;;;;20925530;28;20041;-62
2023/08/20 00:36:07;;;;;;;9.57;3.80;;;;;;;;;;20923322;28;20041;-62
2023/08/20 00:46:09;;;;;;;4.85;2.33;;;;;;;;;;20922075;28;20087;-61
2023/08/20 00:56:10;;;;;;;7.07;2.30;;;;;;;;;;20922008;28;20052;-62
2023/08/20 01:06:22;;;;;;;4.82;1.75;;;;;;;;;;20922580;28;20049;-61
2023/08/20 01:16:24;;;;;;;6.47;2.25;;;;;;;;;;20920492;28;20041;-61
2023/08/20 01:26:43;;;;;;;6.80;2.50;;;;;;;;;;20919619;28;20045;-62
2023/08/20 01:36:44;;;;;;;5.43;1.95;;;;;;;;;;20920008;28;20402;-62
2023/08/20 01:46:45;;;;;;;4.95;1.58;;;;;;;;;;20918195;28;20057;-60
2023/08/20 01:56:46;;;;;;;8.23;1.55;;;;;;;;;;20916047;28;20049;-61
2023/08/20 02:06:47;;;;;;;5.85;1.70;;;;;;;;;;20917747;28;20116;-61
2023/08/20 02:16:49;;;;;;;3.38;1.50;;;;;;;;;;20917224;28;20047;-61
2023/08/20 02:26:50;;;;;;;5.93;1.67;;;;;;;;;;20916405;28;20069;-61
2023/08/20 02:36:51;;;;;;;6.65;2.10;;;;;;;;;;20915608;28;20371;-61
2023/08/20 02:46:55;;;;;;;6.13;1.40;;;;;;;;;;20913488;28;20061;-60
2023/08/20 02:56:56;;;;;;;4.82;1.67;;;;;;;;;;20912489;28;20076;-61
2023/08/20 03:06:57;;;;;;;6.47;2.13;;;;;;;;;;20912880;28;20045;-61
2023/08/20 03:16:58;;;;;;;4.00;1.45;;;;;;;;;;20911361;28;20044;-62
2023/08/20 03:26:59;;;;;;;5.22;1.52;;;;;;;;;;20910934;28;20045;-62
2023/08/20 03:37:01;;;;;;;4.57;1.23;;;;;;;;;;20910790;28;20187;-61
2023/08/20 03:47:02;;;;;;;8.73;2.05;;;;;;;;;;20911967;28;20490;-61
2023/08/20 03:57:03;;;;;;;6.10;1.50;;;;;;;;;;20910384;28;20496;-61
2023/08/20 04:07:04;;;;;;;3.63;1.77;;;;;;;;;;20911726;28;20049;-61
2023/08/20 04:17:05;;;;;;;10.23;1.92;;;;;;;;;;20909941;28;20110;-62
2023/08/20 04:27:06;;;;;;;5.57;1.83;;;;;;;;;;20922025;28;20048;-61
2023/08/20 04:37:07;;;;;;;7.70;1.60;;;;;;;;;;20924894;28;20099;-62
2023/08/20 04:47:15;;;;;;;6.28;1.95;;;;;;;;;;20924225;28;20045;-61
2023/08/20 04:57:16;;;;;;;9.52;1.92;;;;;;;;;;20924689;28;20088;-61
2023/08/20 05:07:17;;;;;;;6.68;2.20;;;;;;;;;;20922686;28;20113;-61
2023/08/20 05:17:18;;;;;;;4.72;1.77;;;;;;;;;;20922086;28;20123;-60
2023/08/20 05:27:19;;;;;;;9.25;1.80;;;;;;;;;;20921374;28;20120;-62
2023/08/20 05:37:20;;;;;;;7.45;1.50;;;;;;;;;;20919961;28;20067;-62
2023/08/20 05:47:21;;;;;;;3.97;1.40;;;;;;;;;;20918167;28;20045;-61
2023/08/20 05:57:22;;;;;;;7.63;2.05;;;;;;;;;;20919862;28;20053;-60
2023/08/20 06:07:24;;;;;;;4.72;1.83;;;;;;;;;;20917862;28;20555;-61
2023/08/20 06:17:25;;;;;;;5.13;1.45;;;;;;;;;;20916752;28;20508;-62
2023/08/20 06:27:26;;;;;;;5.47;1.30;;;;;;;;;;20916173;28;20517;-62
2023/08/20 06:37:27;;;;;;;6.28;1.88;;;;;;;;;;20915379;28;20056;-60
2023/08/20 06:47:28;;;;;;;5.70;1.58;;;;;;;;;;20914104;28;20075;-62
2023/08/20 06:57:29;;;;;;;3.40;2.05;;;;;;;;;;20914128;28;20052;-62
2023/08/20 07:07:30;;;;;;;7.15;1.77;;;;;;;;;;20913749;28;20049;-62
2023/08/20 07:17:31;;;;;;;8.30;2.13;;;;;;;;;;20913489;28;20048;-62
2023/08/20 07:27:33;;;;;;;4.35;1.65;;;;;;;;;;20912888;28;20560;-62
2023/08/20 07:37:34;;;;;;;8.50;1.90;;;;;;;;;;20912664;28;20049;-62
2023/08/20 07:47:36;;;;;;;5.63;1.67;;;;;;;;;;20911812;28;20037;-62
2023/08/20 07:57:37;;;;;;;8.73;1.90;;;;;;;;;;20919453;28;20161;-62
2023/08/20 08:07:38;;;;;;;4.85;2.03;;;;;;;;;;20926848;28;20545;-62
2023/08/20 08:17:39;;;;;;;6.80;2.00;;;;;;;;;;20924738;28;20049;-62
2023/08/20 08:27:41;;;;;;;6.63;2.05;;;;;;;;;;20924062;28;20045;-62
2023/08/20 08:37:42;;;;;;;7.32;2.20;;;;;;;;;;20923356;28;20152;-61
2023/08/20 08:47:43;;;;;;;4.68;1.42;;;;;;;;;;20921388;28;20129;-62
2023/08/20 08:57:44;;;;;;;6.75;1.50;;;;;;;;;;20922908;28;20482;-62
2023/08/20 09:07:45;;;;;;;6.10;1.90;;;;;;;;;;20921547;28;20540;-63
2023/08/20 09:17:47;;;;;;;6.43;1.98;;;;;;;;;;20921315;28;20041;-62
2023/08/20 09:27:48;;;;;;;8.80;4.38;;;;;;;;;;20920841;28;20041;-62
2023/08/20 09:37:49;;;;;;;6.60;1.77;;;;;;;;;;20919863;28;20124;-63
2023/08/20 09:47:54;;;;;;;6.55;1.38;;;;;;;;;;20918661;28;20049;-62
2023/08/20 09:57:57;;;;;;;6.32;1.80;;;;;;;;;;20917815;28;20453;-63
2023/08/20 10:07:58;;;;;;;11.52;2.25;;;;;;;;;;20917322;28;20041;-63
2023/08/20 10:18:01;;;;;;;4.18;2.00;;;;;;;;;;20915142;28;20441;-64
2023/08/20 10:28:14;;;;;;;6.38;1.52;;;;;;;;;;20915382;28;20068;-64
2023/08/20 10:38:19;;;;;;;5.13;1.70;;;;;;;;;;20915125;28;20056;-63
2023/08/20 10:48:20;;;;;;;4.43;1.83;;;;;;;;;;20913032;28;20044;-61
2023/08/20 10:58:24;;;;;;;5.95;2.17;;;;;;;;;;20913075;28;20049;-65
2023/08/20 11:08:25;;;;;;;6.05;2.08;;;;;;;;;;20912539;28;20041;-64
2023/08/20 11:18:27;;;;;;;6.68;1.65;;;;;;;;;;20913111;28;20482;-64
2023/08/20 11:28:28;;;;;;;5.80;2.03;;;;;;;;;;20914218;28;20037;-63
2023/08/20 11:38:30;;;;;;;4.35;1.17;;;;;;;;;;20929394;28;20123;-62
2023/08/20 11:48:31;;;;;;;3.53;1.67;;;;;;;;;;20928156;28;20080;-61
2023/08/20 11:58:32;;;;;;;2.85;1.50;;;;;;;;;;20927645;28;20080;-61
2023/08/20 12:08:38;;;;;;;8.68;4.35;;;;;;;;;;20926528;28;20064;-64
2023/08/20 12:18:39;;;;;;;9.23;4.72;;;;;;;;;;20925469;28;20041;-63
2023/08/20 12:28:41;;;;;;;3.20;1.38;;;;;;;;;;20924343;28;20072;-63
2023/08/20 12:38:42;;;;;;;5.13;1.50;;;;;;;;;;20923311;28;20091;-63
2023/08/20 12:48:43;;;;;;;1.92;1.40;;;;;;;;;;20921694;28;20416;-63
2023/08/20 12:58:45;;;;;;;4.75;1.48;;;;;;;;;;20921739;28;20398;-63
2023/08/20 13:08:46;;;;;;;2.28;0.82;;;;;;;;;;20921812;28;20044;-63
2023/08/20 13:18:47;;;;;;;1.15;0.88;;;;;;;;;;20921144;28;20436;-63
2023/08/20 13:28:48;;;;;;;4.07;1.20;;;;;;;;;;20920440;28;20041;-63
2023/08/20 13:38:50;;;;;;;2.83;0.98;;;;;;;;;;20917958;28;20048;-63
2023/08/20 13:48:51;;;;;;;2.00;0.40;;;;;;;;;;20917171;28;20049;-64
2023/08/20 13:58:52;;;;;;;2.15;0.82;;;;;;;;;;20918120;28;20483;-63
2023/08/20 14:08:53;;;;;;;1.75;0.73;;;;;;;;;;20917536;28;20064;-64
2023/08/20 14:18:55;;;;;;;2.30;0.85;;;;;;;;;;20916968;28;20588;-63
2023/08/20 14:28:57;;;;;;;3.03;0.60;;;;;;;;;;20916086;28;20048;-62
2023/08/20 14:38:58;;;;;;;2.22;0.57;;;;;;;;;;20915359;28;20049;-63
2023/08/20 14:48:59;;;;;;;2.17;0.60;;;;;;;;;;20914475;28;20057;-63
2023/08/20 14:59:00;;;;;;;1.98;0.73;;;;;;;;;;20914525;28;20064;-63
2023/08/20 15:09:02;;;;;;;2.28;0.75;;;;;;;;;;20912199;28;20040;-63
2023/08/20 15:19:04;;;;;;;2.83;1.27;;;;;;;;;;20913498;28;20401;-62
2023/08/20 15:29:05;;;;;;;1.40;0.70;;;;;;;;;;20912772;28;20056;-63
2023/08/20 15:39:06;;;;;;;1.15;0.60;;;;;;;;;;20910712;28;20052;-63
2023/08/20 15:49:07;;;;;;;1.58;0.73;;;;;;;;;;20911824;28;20060;-63
2023/08/20 15:59:08;;;;;;;0.75;0.55;;;;;;;;;;20910432;28;20088;-62
2023/08/20 16:09:10;;;;;;;1.38;0.70;;;;;;;;;;20911690;28;20103;-63
2023/08/20 16:19:12;;;;;;;3.45;0.50;;;;;;;;;;20918205;28;20052;-63
2023/08/20 16:29:13;;;;;;;1.48;0.70;;;;;;;;;;20924483;28;20048;-64
2023/08/20 16:39:14;;;;;;;1.17;0.40;;;;;;;;;;20924877;28;20423;-63
2023/08/20 16:49:15;;;;;;;2.78;0.60;;;;;;;;;;20923585;28;20421;-64
2023/08/20 16:59:17;;;;;;;1.02;0.52;;;;;;;;;;20922980;28;20045;-63
2023/08/20 17:09:18;;;;;;;3.15;0.93;;;;;;;;;;20922086;28;20071;-63
2023/08/20 17:19:23;;;;;;;1.42;0.68;;;;;;;;;;20921461;28;20041;-64
2023/08/20 17:29:24;;;;;;;0.70;0.30;;;;;;;;;;20920139;28;20541;-63
2023/08/20 17:39:25;;;;;;;1.75;0.32;;;;;;;;;;20919975;28;20542;-62
2023/08/20 17:49:26;;;;;;;1.67;0.60;;;;;;;;;;20917840;28;20071;-63
2023/08/20 17:59:27;;;;;;;2.88;0.68;;;;;;;;;;20918322;28;20056;-62
2023/08/20 18:09:28;;;;;;;2.97;1.70;;;;;;;;;;20917701;28;20051;-62
2023/08/20 18:19:30;;;;;;;3.92;1.10;;;;;;;;;;20916637;28;20498;-63
2023/08/20 18:29:31;;;;;;;1.70;0.77;;;;;;;;;;20916079;28;20536;-64
2023/08/20 18:39:32;;;;;;;2.83;0.93;;;;;;;;;;20914390;28;20045;-63
2023/08/20 18:49:33;;;;;;;1.80;0.88;;;;;;;;;;20914313;28;20045;-64
2023/08/20 18:59:35;;;;;;;3.90;2.17;;;;;;;;;;20912922;28;20075;-64
2023/08/20 19:09:37;;;;;;;5.28;1.38;;;;;;;;;;20913661;28;20043;-64
2023/08/20 19:19:38;;;;;;;4.80;2.03;;;;;;;;;;20913406;28;20383;-63
2023/08/20 19:29:40;;;;;;;4.60;2.20;;;;;;;;;;20913042;28;20487;-64
2023/08/20 19:39:41;;;;;;;3.70;2.60;;;;;;;;;;20912396;28;20041;-64
2023/08/20 19:49:42;;;;;;;9.05;2.85;;;;;;;;;;20913579;28;20458;-64
2023/08/20 19:59:44;;;;;;;7.78;2.45;;;;;;;;;;20926231;28;20071;-63
2023/08/20 20:09:45;;;;;;;6.18;3.13;;;;;;;;;;20927265;28;20502;-63
2023/08/20 20:19:47;;;;;;;7.10;3.00;;;;;;;;;;20926238;28;20371;-63
2023/08/20 20:29:48;;;;;;;8.48;2.47;;;;;;;;;;20926130;28;20390;-64
2023/08/20 20:39:49;;;;;;;7.20;3.38;;;;;;;;;;20924255;28;20478;-64
2023/08/20 20:49:51;;;;;;;6.70;3.25;;;;;;;;;;20923237;28;20517;-63
2023/08/20 20:59:52;;;;;;;4.75;3.03;;;;;;;;;;20921463;28;20041;-63
2023/08/20 21:09:54;;;;;;;6.95;3.63;;;;;;;;;;20921213;28;20099;-63
2023/08/20 21:19:55;;;;;;;5.93;2.65;;;;;;;;;;20921918;28;20045;-63
2023/08/20 21:29:56;;;;;;;9.27;2.22;;;;;;;;;;20920802;28;20037;-63
2023/08/20 21:39:57;;;;;;;7.22;2.58;;;;;;;;;;20919617;28;20049;-63
2023/08/20 21:49:58;;;;;;;3.25;1.20;;;;;;;;;;20917579;28;20085;-63
2023/08/20 21:59:59;;;;;;;6.90;1.75;;;;;;;;;;20918147;28;20120;-62
2023/08/20 22:10:01;;;;;;;5.43;2.33;;;;;;;;;;20915685;28;20053;-64
2023/08/20 22:20:05;;;;;;;3.05;1.65;;;;;;;;;;20914961;28;20080;-64
2023/08/20 22:30:06;;;;;;;3.37;2.20;;;;;;;;;;20915585;28;20045;-62
2023/08/20 22:40:08;;;;;;;4.15;1.75;;;;;;;;;;20915758;28;20048;-64
2023/08/20 22:50:09;;;;;;;7.32;2.40;;;;;;;;;;20914073;28;20052;-61
2023/08/20 23:00:10;;;;;;;11.30;7.78;;;;;;;;;;20913734;28;20045;-61
2023/08/20 23:10:11;;;;;;;5.35;2.75;;;;;;;;;;20913518;28;20080;-63
2023/08/20 23:20:13;;;;;;;4.63;1.63;;;;;;;;;;20913154;28;20491;-62
2023/08/20 23:30:16;;;;;;;6.57;1.60;;;;;;;;;;20923513;28;20059;-62
2023/08/20 23:40:17;;;;;;;4.05;1.70;;;;;;;;;;20927819;28;20421;-62
2023/08/20 23:50:18;;;;;;;4.50;2.28;;;;;;;;;;20927735;28;20053;-62
